Time;durP1;ratioP1;P1;durP2;ratioP2;P2;SDS_P1;SDS_P2;PMS_P1;PMS_P2;Temp;Humidity;BMP_temperature;BMP_pressure;BME280_temperature;BME280_humidity;BME280_pressure;Samples;Min_cycle;Max_cycle;Signal;HPM_P1;HPM_P2
2022/04/27 00:00:21;;;;;;;26.00;18.40;;;;;;;7.79;83.22;100795.31;87602;1283;82128;-61
2022/04/27 00:02:59;;;;;;;25.50;19.00;;;;;;;7.67;83.29;100793.45;87765;1282;100119;-60
2022/04/27 00:05:19;;;;;;;23.60;19.20;;;;;;;7.61;83.22;100793.42;87888;1281;88705;-61
2022/04/27 00:07:46;;;;;;;23.20;18.60;;;;;;;7.54;83.22;100799.89;87917;1281;94032;-62
2022/04/27 00:13:07;;;;;;;23.40;19.00;;;;;;;7.32;82.97;100796.27;87593;1284;80638;-60
2022/04/27 00:16:02;;;;;;;23.90;18.50;;;;;;;7.21;83.15;100799.09;87830;1283;100244;-70
2022/04/27 00:18:12;;;;;;;22.50;18.50;;;;;;;7.11;83.10;100799.20;87743;1285;88072;-70
2022/04/27 00:20:33;;;;;;;23.70;19.30;;;;;;;7.06;82.91;100806.99;87900;1281;95651;-70
2022/04/27 00:22:56;;;;;;;22.10;18.10;;;;;;;7.00;82.92;100806.03;87855;1281;82315;-71
2022/04/27 00:25:16;;;;;;;24.00;19.10;;;;;;;6.91;82.95;100805.55;87876;1281;83275;-70
2022/04/27 00:27:37;;;;;;;26.80;19.30;;;;;;;6.84;83.04;100808.56;87420;1287;98611;-71
2022/04/27 00:32:33;;;;;;;21.80;18.50;;;;;;;6.63;82.89;100811.52;87764;1283;93600;-61
2022/04/27 00:34:53;;;;;;;23.60;19.60;;;;;;;6.53;82.91;100810.30;87588;1285;80262;-71
2022/04/27 00:37:10;;;;;;;24.70;19.80;;;;;;;6.42;82.85;100809.14;87730;1284;81307;-70
2022/04/27 00:39:42;;;;;;;23.40;18.60;;;;;;;6.29;82.98;100808.58;87738;1284;100116;-70
2022/04/27 00:42:07;;;;;;;23.40;18.60;;;;;;;6.16;82.78;100813.83;87738;1284;88823;-70
2022/04/27 00:44:25;;;;;;;20.00;16.30;;;;;;;6.05;82.99;100812.45;87915;1281;93275;-59
2022/04/27 00:46:41;;;;;;;21.20;17.90;;;;;;;6.00;83.09;100809.16;87744;1284;80177;-59
2022/04/27 00:49:02;;;;;;;22.70;18.00;;;;;;;5.92;83.07;100811.94;87571;1284;80464;-71
2022/04/27 00:51:30;;;;;;;22.90;18.10;;;;;;;5.88;83.02;100809.31;87741;1284;98464;-70
2022/04/27 00:53:48;;;;;;;28.10;19.60;;;;;;;5.84;83.16;100810.59;87860;1281;87797;-69
2022/04/27 00:56:11;;;;;;;22.20;17.70;;;;;;;5.79;83.27;100812.48;87932;1281;94726;-72
2022/04/27 00:58:28;;;;;;;20.40;16.70;;;;;;;5.73;83.34;100811.77;87751;1284;82297;-63
2022/04/27 01:00:51;;;;;;;19.80;16.40;;;;;;;5.70;83.15;100810.90;87442;1285;82109;-60
2022/04/27 01:03:06;;;;;;;18.70;15.90;;;;;;;5.65;83.26;100810.97;87736;1282;100621;-59
2022/04/27 01:05:25;;;;;;;21.80;17.80;;;;;;;5.63;83.25;100810.67;87741;1284;89234;-60
2022/04/27 01:07:38;;;;;;;22.20;16.90;;;;;;;5.58;83.15;100817.40;87464;1285;95686;-59
2022/04/27 01:09:50;;;;;;;22.50;17.50;;;;;;;5.52;83.13;100815.36;87849;1283;81001;-71
2022/04/27 01:12:11;;;;;;;20.90;17.40;;;;;;;5.43;83.28;100817.04;87762;1284;82534;-71
2022/04/27 01:14:32;;;;;;;23.80;19.20;;;;;;;5.39;83.30;100815.31;87827;1283;99235;-71
2022/04/27 01:16:54;;;;;;;19.90;16.40;;;;;;;5.31;83.31;100820.00;87573;1284;85977;-70
2022/04/27 01:19:13;;;;;;;21.20;16.80;;;;;;;5.26;83.33;100816.52;87800;1284;95948;-60
2022/04/27 01:21:32;;;;;;;23.30;17.80;;;;;;;5.27;83.31;100818.75;87753;1284;79584;-60
2022/04/27 01:23:45;;;;;;;21.50;15.90;;;;;;;5.24;83.54;100819.98;87777;1283;81732;-60
2022/04/27 01:26:07;;;;;;;15.90;13.80;;;;;;;5.18;83.64;100823.77;87755;1284;99116;-60
2022/04/27 01:28:32;;;;;;;21.00;16.70;;;;;;;5.14;83.36;100824.48;87800;1284;87538;-70
2022/04/27 01:31:01;;;;;;;21.30;17.10;;;;;;;5.08;83.55;100826.43;87888;1281;93728;-71
2022/04/27 01:33:21;;;;;;;20.60;16.70;;;;;;;5.02;83.55;100827.36;87731;1284;82685;-60
2022/04/27 01:35:41;;;;;;;23.40;17.60;;;;;;;5.01;83.52;100826.58;87754;1281;81270;-60
2022/04/27 01:38:04;;;;;;;21.50;16.90;;;;;;;5.02;83.43;100830.45;87864;1281;99694;-61
2022/04/27 01:40:17;;;;;;;22.80;17.00;;;;;;;4.99;83.45;100835.52;87872;1281;87607;-60
2022/04/27 01:42:33;;;;;;;24.90;17.20;;;;;;;4.91;83.58;100834.91;87887;1281;93479;-61
2022/04/27 01:44:53;;;;;;;22.40;17.60;;;;;;;4.84;83.65;100835.56;87846;1281;79403;-72
2022/04/27 01:47:04;;;;;;;26.90;19.20;;;;;;;4.81;83.86;100835.09;87709;1284;81196;-71
2022/04/27 01:49:15;;;;;;;23.90;17.70;;;;;;;4.80;83.81;100838.41;87783;1284;98204;-72
2022/04/27 01:54:19;;;;;;;23.30;17.60;;;;;;;4.80;83.71;100843.77;87425;1287;94399;-60
2022/04/27 01:56:36;;;;;;;25.50;19.00;;;;;;;4.80;84.13;100841.64;87756;1284;78542;-60
2022/04/27 01:58:50;;;;;;;24.70;18.00;;;;;;;4.83;83.90;100841.17;87567;1284;81854;-71
2022/04/27 02:01:10;;;;;;;24.50;19.00;;;;;;;4.82;83.90;100843.94;87876;1281;100009;-72
2022/04/27 02:03:23;;;;;;;24.10;18.90;;;;;;;4.80;83.88;100843.43;87846;1281;89293;-60
2022/04/27 02:05:34;;;;;;;24.90;18.60;;;;;;;4.77;83.96;100840.31;87515;1284;94193;-59
2022/04/27 02:07:47;;;;;;;21.90;17.90;;;;;;;4.77;84.00;100844.95;87797;1284;80210;-59
2022/04/27 02:09:58;;;;;;;21.70;17.90;;;;;;;4.74;84.19;100843.74;87757;1284;80475;-73
2022/04/27 02:12:21;;;;;;;23.30;17.20;;;;;;;4.73;84.04;100844.55;87756;1287;100142;-70
2022/04/27 02:14:35;;;;;;;22.40;17.10;;;;;;;4.70;84.04;100844.11;87721;1284;87806;-60
2022/04/27 02:16:50;;;;;;;24.50;18.00;;;;;;;4.66;84.02;100850.38;87880;1281;94487;-70
2022/04/27 02:19:02;;;;;;;23.50;17.80;;;;;;;4.62;84.21;100852.58;87905;1281;79906;-70
2022/04/27 02:21:14;;;;;;;25.40;18.30;;;;;;;4.60;84.19;100849.75;87811;1283;79991;-70
2022/04/27 02:23:28;;;;;;;23.60;18.20;;;;;;;4.55;83.83;100851.23;87856;1281;99657;-70
2022/04/27 02:25:42;;;;;;;19.50;16.80;;;;;;;4.47;84.07;100853.10;87902;1281;89446;-71
2022/04/27 02:28:03;;;;;;;22.50;17.80;;;;;;;4.40;84.08;100854.75;87877;1281;95651;-67
2022/04/27 02:30:18;;;;;;;24.70;19.10;;;;;;;4.34;83.86;100852.33;87860;1281;79206;-60
2022/04/27 02:32:34;;;;;;;26.60;19.20;;;;;;;4.33;83.92;100854.02;87457;1287;82560;-61
2022/04/27 02:34:48;;;;;;;22.70;17.90;;;;;;;4.28;84.19;100856.29;87827;1284;99277;-73
2022/04/27 02:36:59;;;;;;;;;;;;;;;4.25;84.24;100854.53;87769;1284;87047;-71
2022/04/27 02:39:11;;;;;;;26.10;20.20;;;;;;;4.26;84.35;100853.77;87819;1283;95078;-61
2022/04/27 02:41:27;;;;;;;27.60;20.50;;;;;;;4.21;84.19;100849.21;87870;1281;80503;-62
2022/04/27 02:43:38;;;;;;;25.40;19.50;;;;;;;4.13;84.12;100850.10;87902;1281;80886;-71
2022/04/27 02:45:53;;;;;;;28.40;21.80;;;;;;;4.08;84.20;100856.55;87862;1281;98402;-71
2022/04/27 02:48:09;;;;;;;31.00;22.00;;;;;;;4.09;84.41;100855.65;87863;1281;89384;-61
2022/04/27 02:52:58;;;;;;;29.40;21.60;;;;;;;4.09;84.31;100853.48;87867;1281;79091;-59
2022/04/27 02:55:10;;;;;;;33.50;22.60;;;;;;;4.03;84.25;100853.33;87887;1281;82224;-70
2022/04/27 02:57:25;;;;;;;28.90;22.30;;;;;;;3.95;84.11;100857.77;87877;1281;99770;-70
2022/04/27 02:59:38;;;;;;;27.50;19.80;;;;;;;3.89;84.17;100858.52;87828;1284;89286;-70
2022/04/27 03:01:55;;;;;;;29.80;20.50;;;;;;;3.84;84.30;100857.34;87902;1281;95184;-71
2022/04/27 03:04:11;;;;;;;29.60;20.90;;;;;;;3.81;84.22;100864.40;87883;1281;79157;-72
2022/04/27 03:06:21;;;;;;;30.80;19.50;;;;;;;3.75;84.35;100864.39;87879;1281;81921;-72
2022/04/27 03:08:30;;;;;;;27.20;18.80;;;;;;;3.71;84.47;100866.17;87848;1281;98456;-60
2022/04/27 03:10:41;;;;;;;26.10;19.60;;;;;;;3.70;84.44;100866.94;87806;1284;89288;-60
2022/04/27 03:12:49;;;;;;;28.10;20.00;;;;;;;3.74;84.53;100867.70;87810;1284;96090;-61
2022/04/27 03:15:01;;;;;;;23.40;18.30;;;;;;;3.75;84.46;100870.61;87857;1281;81902;-71
2022/04/27 03:17:13;;;;;;;25.20;18.90;;;;;;;3.74;84.47;100872.88;87847;1281;83647;-70
2022/04/27 03:19:25;;;;;;;22.70;17.30;;;;;;;3.67;84.39;100870.96;87860;1281;98905;-70
2022/04/27 03:21:34;;;;;;;27.20;19.10;;;;;;;3.63;84.44;100875.39;87871;1281;88284;-70
2022/04/27 03:23:43;;;;;;;24.60;18.40;;;;;;;3.62;84.54;100877.97;87862;1281;95452;-60
2022/04/27 03:25:55;;;;;;;27.50;18.90;;;;;;;3.65;84.68;100884.49;87850;1281;80400;-60
2022/04/27 03:28:04;;;;;;;27.30;18.10;;;;;;;3.70;84.67;100880.54;87888;1281;83707;-61
2022/04/27 03:30:15;;;;;;;25.90;17.70;;;;;;;3.74;84.96;100884.77;87859;1281;99644;-60
2022/04/27 03:32:26;;;;;;;29.00;18.80;;;;;;;3.80;84.82;100890.15;87888;1281;88549;-61
2022/04/27 03:34:35;;;;;;;29.20;19.30;;;;;;;3.87;85.02;100888.95;87874;1281;95340;-70
2022/04/27 03:36:47;;;;;;;27.10;20.50;;;;;;;3.90;85.11;100891.48;87882;1281;82149;-70
2022/04/27 03:38:56;;;;;;;25.40;18.10;;;;;;;3.96;85.27;100892.61;87804;1283;82884;-59
2022/04/27 03:41:04;;;;;;;24.50;18.90;;;;;;;4.07;85.30;100890.73;87868;1281;100163;-60
2022/04/27 03:43:17;;;;;;;23.60;18.00;;;;;;;4.18;85.24;100896.01;87842;1281;89078;-60
2022/04/27 03:45:26;;;;;;;25.80;18.10;;;;;;;4.27;85.45;100898.42;87219;1281;922764;-59
2022/04/27 03:47:35;;;;;;;27.80;18.60;;;;;;;4.38;85.42;100897.42;87896;1281;80412;-60
2022/04/27 03:49:44;;;;;;;23.10;18.60;;;;;;;4.48;85.17;100895.83;87898;1281;83057;-64
2022/04/27 03:51:53;;;;;;;24.80;19.30;;;;;;;4.58;85.62;100903.05;87894;1281;99423;-60
2022/04/27 03:54:02;;;;;;;22.10;17.40;;;;;;;4.70;85.37;100903.41;87902;1281;87606;-71
2022/04/27 03:56:11;;;;;;;26.10;19.10;;;;;;;4.77;85.20;100902.70;87783;1284;95324;-71
2022/04/27 03:58:23;;;;;;;23.70;17.80;;;;;;;4.94;85.18;100908.34;87837;1282;80501;-70
2022/04/27 04:00:33;;;;;;;23.40;18.30;;;;;;;5.62;85.25;100909.72;87859;1281;82034;-70
2022/04/27 04:02:42;;;;;;;22.50;19.00;;;;;;;6.66;84.75;100912.10;87871;1281;98753;-73
2022/04/27 04:04:52;;;;;;;23.20;18.50;;;;;;;7.52;83.96;100911.58;87878;1281;89012;-71
2022/04/27 04:07:01;;;;;;;26.00;18.50;;;;;;;7.90;83.16;100913.38;87891;1281;94104;-72
2022/04/27 04:09:10;;;;;;;22.50;17.80;;;;;;;7.99;82.77;100918.84;87864;1281;82187;-59
2022/04/27 04:11:20;;;;;;;22.10;18.00;;;;;;;8.01;82.72;100922.58;87922;1281;81988;-60
2022/04/27 04:13:29;;;;;;;26.00;18.80;;;;;;;7.86;82.61;100923.66;87885;1281;98519;-61
2022/04/27 04:15:39;;;;;;;26.20;18.10;;;;;;;7.83;82.69;100924.30;87875;1281;88087;-63
2022/04/27 04:17:48;;;;;;;25.40;18.10;;;;;;;7.77;82.39;100930.88;87894;1281;95069;-60
2022/04/27 04:19:57;;;;;;;27.80;17.90;;;;;;;7.72;82.21;100935.61;87746;1284;78013;-60
2022/04/27 04:22:08;;;;;;;29.00;17.90;;;;;;;7.88;82.33;100932.92;87817;1283;81838;-59
2022/04/27 04:24:17;;;;;;;27.30;18.50;;;;;;;8.09;82.25;100937.48;87909;1281;99894;-71
2022/04/27 04:28:57;;;;;;;27.10;16.80;;;;;;;8.95;82.01;100931.50;87669;1281;96102;-60
2022/04/27 04:31:09;;;;;;;26.60;18.30;;;;;;;9.92;81.58;100935.76;87878;1281;81816;-61
2022/04/27 04:33:21;;;;;;;26.30;18.60;;;;;;;11.22;81.06;100930.34;87897;1281;82046;-70
2022/04/27 04:35:30;;;;;;;28.70;19.90;;;;;;;12.29;80.13;100935.15;87789;1284;99631;-70
2022/04/27 04:37:39;;;;;;;24.30;20.20;;;;;;;13.40;79.05;100933.01;87885;1281;87871;-72
2022/04/27 04:39:49;;;;;;;21.00;18.20;;;;;;;14.37;78.02;100937.38;87892;1281;94757;-60
2022/04/27 04:42:01;;;;;;;24.20;18.50;;;;;;;15.24;77.31;100936.98;87877;1281;79587;-61
2022/04/27 04:44:12;;;;;;;24.20;17.00;;;;;;;15.87;76.40;100937.73;87749;1284;83258;-61
2022/04/27 04:46:22;;;;;;;20.50;16.70;;;;;;;16.35;75.52;100944.53;87804;1283;99446;-61
2022/04/27 04:48:31;;;;;;;20.90;17.30;;;;;;;16.95;74.26;100945.23;87871;1281;89362;-72
2022/04/27 04:50:40;;;;;;;21.50;16.90;;;;;;;17.56;73.00;100944.45;87869;1281;95252;-71
2022/04/27 04:52:48;;;;;;;21.80;17.20;;;;;;;18.12;71.77;100946.50;87874;1281;78144;-71
2022/04/27 04:54:58;;;;;;;18.70;16.10;;;;;;;18.62;69.56;100947.45;87894;1281;80864;-71
2022/04/27 04:57:10;;;;;;;20.00;14.90;;;;;;;18.98;68.28;100949.08;87894;1281;99847;-71
2022/04/27 04:59:19;;;;;;;22.10;15.10;;;;;;;19.10;67.21;100952.24;87900;1281;89089;-61
2022/04/27 05:01:28;;;;;;;21.80;14.80;;;;;;;19.33;66.20;100952.13;87884;1281;93770;-60
2022/04/27 05:03:40;;;;;;;19.70;14.10;;;;;;;19.74;65.60;100952.79;87731;1284;81038;-60
2022/04/27 05:05:49;;;;;;;19.90;13.90;;;;;;;20.19;64.43;100958.94;87921;1281;80532;-61
2022/04/27 05:07:58;;;;;;;20.70;14.10;;;;;;;20.61;63.12;100965.34;87910;1281;97715;-61
2022/04/27 05:10:09;;;;;;;14.90;12.90;;;;;;;20.94;62.53;100969.02;87886;1281;89555;-60
2022/04/27 05:12:17;;;;;;;16.90;12.70;;;;;;;21.34;60.29;100966.99;87876;1281;95277;-61
2022/04/27 05:14:29;;;;;;;15.90;13.50;;;;;;;21.32;59.08;100970.31;87864;1281;78846;-71
2022/04/27 05:16:39;;;;;;;23.10;14.20;;;;;;;21.69;57.82;100977.37;87761;1283;82162;-71
2022/04/27 05:18:48;;;;;;;16.80;12.10;;;;;;;21.84;56.96;100976.21;87778;1282;98701;-60
2022/04/27 05:20:57;;;;;;;17.40;12.80;;;;;;;21.57;54.04;100977.23;87877;1281;86644;-60
2022/04/27 05:23:06;;;;;;;17.30;12.40;;;;;;;21.27;54.68;100978.55;87878;1281;95822;-71
2022/04/27 05:25:15;;;;;;;40.20;17.30;;;;;;;21.88;55.18;100975.13;87920;1281;80135;-72
2022/04/27 05:27:24;;;;;;;47.20;18.00;;;;;;;22.74;54.38;100974.17;87890;1281;82939;-71
2022/04/27 05:32:00;;;;;;;52.90;17.90;;;;;;;23.06;52.63;100981.63;87910;1281;88453;-61
2022/04/27 05:34:09;;;;;;;28.10;15.00;;;;;;;23.61;52.33;100982.83;87893;1281;94003;-70
2022/04/27 05:36:18;;;;;;;36.70;17.60;;;;;;;24.02;50.34;100982.27;87895;1281;78017;-70
2022/04/27 05:38:27;;;;;;;49.70;19.00;;;;;;;23.85;49.58;100989.02;87914;1281;82927;-68
2022/04/27 05:40:36;;;;;;;102.90;25.50;;;;;;;23.92;49.48;100994.72;87917;1281;97533;-71
2022/04/27 05:42:48;;;;;;;42.00;15.70;;;;;;;23.72;48.00;100994.19;87892;1281;87701;-70
2022/04/27 05:45:00;;;;;;;58.10;19.60;;;;;;;23.50;47.81;100998.55;87924;1281;93544;-66
2022/04/27 05:47:11;;;;;;;64.20;19.20;;;;;;;23.87;48.06;101003.16;87877;1281;79557;-66
2022/04/27 05:49:21;;;;;;;18.70;11.40;;;;;;;24.24;47.72;101001.52;87906;1281;83154;-62
2022/04/27 05:51:31;;;;;;;17.50;10.40;;;;;;;24.33;47.52;101001.76;87905;1281;99473;-62
2022/04/27 05:53:43;;;;;;;11.10;9.40;;;;;;;24.49;46.55;101007.55;87885;1281;89198;-63
2022/04/27 05:55:55;;;;;;;10.10;9.00;;;;;;;24.63;46.40;101005.27;87808;1282;95989;-62
2022/04/27 05:58:07;;;;;;;17.00;9.70;;;;;;;24.78;45.42;101010.39;87916;1281;78643;-62
2022/04/27 06:00:20;;;;;;;51.10;16.60;;;;;;;25.14;44.65;101016.23;87912;1281;82890;-65
2022/04/27 06:02:33;;;;;;;75.90;20.60;;;;;;;25.42;43.86;101014.11;87913;1281;98250;-61
2022/04/27 06:04:44;;;;;;;39.20;14.50;;;;;;;25.49;42.26;101019.79;87903;1281;89679;-70
2022/04/27 06:06:57;;;;;;;31.70;12.50;;;;;;;25.59;43.28;101020.65;87907;1281;95288;-70
2022/04/27 06:09:06;;;;;;;76.80;19.80;;;;;;;25.76;42.91;101022.80;87902;1281;77757;-61
2022/04/27 06:11:16;;;;;;;38.80;12.80;;;;;;;25.80;41.91;101023.75;87816;1282;83534;-60
2022/04/27 06:13:26;;;;;;;33.90;14.50;;;;;;;26.15;41.72;101024.90;87951;1281;98549;-63
2022/04/27 06:15:35;;;;;;;19.80;10.40;;;;;;;26.37;41.25;101025.34;87901;1281;89407;-75
2022/04/27 06:17:44;;;;;;;21.50;11.20;;;;;;;26.58;40.75;101023.94;87887;1281;93920;-68
2022/04/27 06:19:57;;;;;;;18.90;11.10;;;;;;;27.37;39.83;101022.55;87920;1281;78565;-68
2022/04/27 06:22:06;;;;;;;37.70;12.40;;;;;;;27.43;39.38;101022.29;87824;1282;81804;-68
2022/04/27 06:24:16;;;;;;;39.90;14.90;;;;;;;27.34;37.83;101028.70;87854;1282;99052;-67
2022/04/27 06:26:25;;;;;;;14.30;9.30;;;;;;;27.44;36.76;101027.66;87942;1281;87558;-71
2022/04/27 06:28:35;;;;;;;9.80;7.90;;;;;;;27.45;36.22;101027.71;87892;1281;94599;-68
2022/04/27 06:30:45;;;;;;;12.80;8.40;;;;;;;27.32;35.89;101034.55;87880;1281;78622;-64
2022/04/27 06:32:54;;;;;;;8.80;7.90;;;;;;;27.29;36.55;101034.38;87936;1281;81663;-66
2022/04/27 06:35:05;;;;;;;12.90;9.50;;;;;;;27.65;35.44;101032.21;87902;1281;99301;-62
2022/04/27 06:37:14;;;;;;;12.70;9.60;;;;;;;27.20;34.74;101031.98;87899;1281;88592;-60
2022/04/27 06:39:26;;;;;;;12.30;8.90;;;;;;;27.13;33.73;101034.23;87896;1281;95430;-61
2022/04/27 06:41:35;;;;;;;9.90;8.60;;;;;;;26.90;34.68;101031.47;87856;1281;79435;-60
2022/04/27 06:43:45;;;;;;;9.10;8.20;;;;;;;27.48;35.07;101037.97;87914;1281;81652;-61
2022/04/27 06:45:54;;;;;;;10.80;8.60;;;;;;;27.73;34.22;101035.45;87912;1281;99997;-61
2022/04/27 06:48:03;;;;;;;11.20;8.30;;;;;;;27.48;34.75;101035.08;87875;1281;87129;-61
2022/04/27 06:50:16;;;;;;;10.40;8.30;;;;;;;27.93;34.76;101034.93;87706;1284;95037;-62
2022/04/27 06:52:28;;;;;;;10.00;7.90;;;;;;;28.82;34.17;101034.60;87868;1281;78467;-61
2022/04/27 06:54:37;;;;;;;10.00;7.50;;;;;;;29.57;33.36;101036.81;87902;1281;82082;-61
2022/04/27 06:56:50;;;;;;;12.00;7.70;;;;;;;29.89;32.08;101035.63;87878;1281;100040;-61
2022/04/27 06:58:59;;;;;;;9.40;7.80;;;;;;;29.62;32.02;101037.46;87930;1281;88906;-61
2022/04/27 07:01:13;;;;;;;12.90;8.90;;;;;;;29.60;31.82;101037.83;87891;1281;94894;-61
2022/04/27 07:03:25;;;;;;;15.20;9.80;;;;;;;29.52;31.43;101040.71;87883;1281;77988;-62
2022/04/27 07:05:35;;;;;;;10.50;8.10;;;;;;;29.62;31.91;101043.42;87928;1281;82271;-62
2022/04/27 07:07:44;;;;;;;9.10;8.00;;;;;;;30.01;32.23;101040.63;87895;1281;99671;-61
2022/04/27 07:09:56;;;;;;;10.40;7.30;;;;;;;30.24;31.92;101040.08;87892;1281;87101;-61
2022/04/27 07:12:06;;;;;;;13.00;10.40;;;;;;;30.56;31.26;101040.65;87946;1281;93266;-61
2022/04/27 07:14:18;;;;;;;12.90;8.60;;;;;;;30.69;29.50;101044.84;87875;1281;81069;-61
2022/04/27 07:16:27;;;;;;;10.20;6.70;;;;;;;30.78;29.07;101046.78;87904;1281;83388;-62
2022/04/27 07:18:39;;;;;;;10.10;8.40;;;;;;;31.15;29.51;101035.81;87954;1281;99030;-67
2022/04/27 07:20:48;;;;;;;16.40;9.90;;;;;;;31.27;29.32;101038.63;87903;1281;88061;-70
2022/04/27 07:22:57;;;;;;;9.40;8.10;;;;;;;31.13;30.29;101041.48;87902;1281;93950;-62
2022/04/27 07:25:08;;;;;;;8.80;7.20;;;;;;;31.20;29.19;101046.81;87783;1282;80835;-61
2022/04/27 07:27:20;;;;;;;8.90;7.70;;;;;;;30.96;29.28;101045.20;87921;1281;80830;-62
2022/04/27 07:29:29;;;;;;;9.70;7.10;;;;;;;31.16;29.40;101052.27;87908;1281;100630;-69
2022/04/27 07:31:38;;;;;;;9.00;7.40;;;;;;;31.02;29.25;101049.26;87918;1281;89049;-68
2022/04/27 07:33:50;;;;;;;12.00;8.90;;;;;;;31.07;29.80;101051.92;87909;1281;93819;-61
2022/04/27 07:36:02;;;;;;;17.60;9.20;;;;;;;31.13;29.48;101054.50;87701;1282;80933;-68
2022/04/27 07:38:11;;;;;;;34.40;11.70;;;;;;;30.86;29.37;101058.64;87757;1284;82769;-61
2022/04/27 07:40:20;;;;;;;21.20;9.80;;;;;;;30.85;29.61;101060.49;87910;1281;99287;-62
2022/04/27 07:42:29;;;;;;;14.30;7.50;;;;;;;31.03;29.47;101062.63;87909;1281;89223;-61
2022/04/27 07:44:38;;;;;;;10.60;7.00;;;;;;;30.78;29.68;101066.76;87929;1281;95887;-71
2022/04/27 07:46:51;;;;;;;17.70;9.60;;;;;;;30.74;29.26;101068.12;87947;1281;80954;-71
2022/04/27 07:49:00;;;;;;;12.40;8.40;;;;;;;30.73;28.54;101070.98;87932;1281;82168;-70
2022/04/27 07:51:10;;;;;;;10.80;7.30;;;;;;;30.84;28.44;101068.98;87935;1281;99102;-70
2022/04/27 07:53:19;;;;;;;12.00;7.50;;;;;;;30.98;28.17;101066.30;87933;1281;88833;-71
2022/04/27 07:55:29;;;;;;;7.90;6.40;;;;;;;31.50;28.01;101066.96;87934;1281;94357;-71
2022/04/27 07:57:39;;;;;;;7.70;5.90;;;;;;;31.71;27.51;101063.47;87943;1281;79447;-69
2022/04/27 07:59:47;;;;;;;9.90;5.50;;;;;;;31.33;28.05;101065.34;87913;1281;80549;-69
2022/04/27 08:01:56;;;;;;;5.40;4.80;;;;;;;31.26;27.72;101069.13;87912;1281;99843;-69
2022/04/27 08:04:06;;;;;;;6.10;4.80;;;;;;;31.29;27.18;101071.80;87968;1281;88594;-69
2022/04/27 08:06:15;;;;;;;6.10;4.70;;;;;;;30.97;27.36;101067.40;87920;1281;94456;-73
2022/04/27 08:08:24;;;;;;;6.70;4.50;;;;;;;30.62;27.10;101066.60;87907;1281;78770;-73
2022/04/27 08:10:37;;;;;;;6.90;5.10;;;;;;;30.71;27.41;101073.69;87933;1281;83230;-72
2022/04/27 08:12:48;;;;;;;5.10;4.40;;;;;;;30.54;27.62;101072.89;87913;1281;98964;-71
2022/04/27 08:15:00;;;;;;;5.30;4.20;;;;;;;30.43;27.27;101071.02;87937;1281;89423;-72
2022/04/27 08:17:09;;;;;;;4.70;4.20;;;;;;;30.50;27.23;101073.64;87937;1281;96089;-70
2022/04/27 08:19:20;;;;;;;5.90;4.80;;;;;;;30.40;27.22;101077.26;87959;1281;79021;-70
2022/04/27 08:21:29;;;;;;;6.60;4.40;;;;;;;30.47;27.67;101076.36;87947;1281;82686;-70
2022/04/27 08:23:40;;;;;;;7.80;4.50;;;;;;;30.51;27.12;101074.23;87935;1281;99927;-70
2022/04/27 08:25:50;;;;;;;5.90;4.10;;;;;;;30.52;26.61;101074.83;87913;1281;89270;-69
2022/04/27 08:28:06;;;;;;;4.10;3.30;;;;;;;29.88;25.32;101079.49;87914;1281;95124;-76
2022/04/27 08:30:15;;;;;;;5.30;3.70;;;;;;;29.65;26.49;101080.70;87936;1281;78189;-76
2022/04/27 08:32:27;;;;;;;5.70;4.30;;;;;;;29.96;26.48;101078.38;87928;1281;83796;-76
2022/04/27 08:34:36;;;;;;;7.20;4.40;;;;;;;29.62;26.55;101081.56;87938;1281;100459;-61
2022/04/27 08:36:45;;;;;;;5.80;4.00;;;;;;;29.56;26.39;101079.88;87941;1281;88596;-64
2022/04/27 08:38:57;;;;;;;5.90;3.60;;;;;;;29.65;26.51;101086.33;87911;1281;96055;-63
2022/04/27 08:41:06;;;;;;;6.40;4.00;;;;;;;29.40;26.44;101081.70;87921;1281;80062;-63
2022/04/27 08:43:18;;;;;;;5.40;3.50;;;;;;;29.17;27.03;101079.13;87962;1281;81372;-72
2022/04/27 08:45:27;;;;;;;9.20;4.60;;;;;;;29.10;26.56;101080.54;87916;1281;99405;-72
2022/04/27 08:47:37;;;;;;;6.20;3.70;;;;;;;28.55;25.82;101085.36;87939;1281;88963;-70
2022/04/27 08:49:46;;;;;;;4.10;3.40;;;;;;;29.05;25.54;101081.80;87943;1281;94963;-59
2022/04/27 08:51:56;;;;;;;6.00;3.60;;;;;;;28.95;25.70;101079.14;87914;1281;77278;-63
2022/04/27 08:54:06;;;;;;;8.80;5.00;;;;;;;29.15;24.91;101079.92;87913;1281;82816;-71
2022/04/27 08:56:16;;;;;;;7.20;4.70;;;;;;;29.00;25.28;101078.92;87962;1281;100382;-70
2022/04/27 08:58:25;;;;;;;5.00;3.40;;;;;;;28.67;25.17;101082.86;87934;1281;87553;-65
2022/04/27 09:00:35;;;;;;;6.60;3.80;;;;;;;28.85;25.49;101085.82;87918;1281;95506;-71
2022/04/27 09:02:45;;;;;;;4.40;3.50;;;;;;;29.14;25.38;101080.09;87957;1281;77346;-61
2022/04/27 09:05:15;;;;;;;5.50;3.90;;;;;;;29.17;24.69;101077.34;87944;1281;82615;-62
2022/04/27 09:07:24;;;;;;;8.80;3.40;;;;;;;29.16;25.29;101080.95;87902;1281;99113;-73
2022/04/27 09:09:39;;;;;;;4.40;3.00;;;;;;;28.90;25.92;101084.15;87966;1280;88402;-63
2022/04/27 09:11:54;;;;;;;13.40;4.70;;;;;;;28.88;25.64;101079.59;87947;1281;94801;-61
2022/04/27 09:14:06;;;;;;;4.80;3.30;;;;;;;28.43;24.95;101082.40;87916;1281;79512;-62
2022/04/27 09:16:15;;;;;;;4.70;2.70;;;;;;;28.04;25.56;101081.31;87967;1281;82639;-62
2022/04/27 09:21:02;;;;;;;3.10;2.70;;;;;;;27.13;26.12;101080.71;87946;1280;89265;-69
2022/04/27 09:23:22;;;;;;;3.80;3.10;;;;;;;26.17;25.99;101091.80;87925;1281;95145;-69
2022/04/27 09:25:40;;;;;;;4.30;2.90;;;;;;;25.10;25.70;101089.04;87938;1281;78259;-68
2022/04/27 09:27:56;;;;;;;7.90;2.90;;;;;;;24.53;26.85;101090.57;87936;1281;82496;-68
2022/04/27 09:30:10;;;;;;;3.80;3.00;;;;;;;24.19;27.46;101089.44;87942;1281;99827;-60
2022/04/27 09:32:20;;;;;;;4.10;2.80;;;;;;;23.78;27.34;101088.73;87947;1281;89219;-61
2022/04/27 09:34:29;;;;;;;4.00;2.70;;;;;;;23.02;27.40;101090.90;87931;1281;94880;-59
2022/04/27 09:36:38;;;;;;;4.40;2.80;;;;;;;22.58;27.59;101089.27;87911;1281;81617;-60
2022/04/27 09:38:50;;;;;;;5.80;2.70;;;;;;;22.36;27.76;101092.04;87960;1281;81417;-61
2022/04/27 09:41:02;;;;;;;4.10;2.50;;;;;;;22.29;28.43;101090.73;87959;1281;99233;-61
2022/04/27 09:43:13;;;;;;;3.70;2.60;;;;;;;22.70;28.52;101084.08;87951;1281;89243;-70
2022/04/27 09:45:25;;;;;;;4.60;2.80;;;;;;;22.75;28.14;101086.98;87908;1281;93933;-70
2022/04/27 09:47:47;;;;;;;4.30;2.30;;;;;;;22.64;27.85;101084.96;87950;1281;77741;-70
2022/04/27 09:49:58;;;;;;;4.40;2.30;;;;;;;22.71;28.18;101081.85;87960;1281;83172;-60
2022/04/27 09:52:14;;;;;;;2.80;2.50;;;;;;;22.57;27.74;101085.30;87937;1281;100679;-61
2022/04/27 09:54:25;;;;;;;4.30;2.30;;;;;;;22.29;28.06;101093.75;87933;1281;87730;-61
2022/04/27 09:56:38;;;;;;;3.20;2.40;;;;;;;22.07;28.69;101092.58;87935;1281;95724;-61
2022/04/27 09:58:47;;;;;;;;;;;;;;;21.64;28.89;101095.64;87998;1281;78442;-61
2022/04/27 10:01:04;;;;;;;2.00;1.70;;;;;;;21.29;29.37;101096.73;87942;1281;80290;-61
2022/04/27 10:03:16;;;;;;;3.20;1.70;;;;;;;21.02;29.06;101094.39;87911;1281;99713;-69
2022/04/27 10:05:27;;;;;;;2.90;1.90;;;;;;;20.79;28.85;101087.97;87936;1281;87009;-70
2022/04/27 10:07:38;;;;;;;1.90;1.30;;;;;;;20.52;29.21;101092.64;87966;1281;94430;-69
2022/04/27 10:09:49;;;;;;;2.30;1.70;;;;;;;20.31;29.47;101094.27;87930;1281;77734;-73
2022/04/27 10:12:01;;;;;;;2.90;1.50;;;;;;;20.22;29.26;101090.92;87980;1281;83126;-70
2022/04/27 10:14:11;;;;;;;4.00;2.10;;;;;;;20.25;29.98;101094.98;87940;1281;100260;-60
2022/04/27 10:16:24;;;;;;;4.20;2.50;;;;;;;20.14;30.69;101095.48;87958;1281;85813;-58
2022/04/27 10:18:37;;;;;;;3.00;2.40;;;;;;;20.09;31.24;101092.23;87955;1281;96010;-61
2022/04/27 10:20:51;;;;;;;5.30;2.30;;;;;;;20.12;31.54;101092.37;87914;1281;78452;-59
2022/04/27 10:26:20;;;;;;;3.20;2.30;;;;;;;19.80;32.08;101099.73;83955;1269;3026492;-71
2022/04/27 10:28:34;;;;;;;4.10;2.20;;;;;;;19.90;31.84;101098.20;88046;1279;89447;-70
2022/04/27 10:30:49;;;;;;;3.50;2.00;;;;;;;19.81;31.61;101097.73;88067;1280;94344;-70